AUA222 LIMC-LOWW
Flight info
| Callsign | AUA222 |
|---|---|
| Flight time | 1h 0m |
| Altitude | 32000 |
| Route | OSKOR DCT NESTI DCT ARALD/N0420F310 DCT ABTAN ABTAN2W |
| Aircraft | B738/M-SDE2E3FGHIRWXY/LB1 |
Departure
| Time | 2026-05-07 13:31 |
|---|---|
| Airport | Milan Malpensa International Airport (LIMC) |
Arrival
| Time | 2026-05-07 14:31 |
|---|---|
| Airport | Vienna International Airport (LOWW) |
| Time | Latitude | Longitude | Altitude | Speed | Heading |
|---|---|---|---|---|---|
| 2026-05-07 13:04 | 45.62835 | 8.71432 | 775 ft | 0 kts | 169° |
| 2026-05-07 13:15 | 45.62837 | 8.71432 | 775 ft | 1 kts | 169° |
| 2026-05-07 13:16 | 45.62851 | 8.71428 | 775 ft | 2 kts | 169° |
| 2026-05-07 13:16 | 45.62868 | 8.71424 | 775 ft | 2 kts | 169° |
| 2026-05-07 13:16 | 45.62883 | 8.71420 | 775 ft | 2 kts | 171° |
| 2026-05-07 13:16 | 45.62899 | 8.71416 | 775 ft | 2 kts | 172° |
| 2026-05-07 13:17 | 45.62915 | 8.71413 | 775 ft | 2 kts | 165° |
| 2026-05-07 13:17 | 45.62929 | 8.71405 | 775 ft | 2 kts | 141° |
| 2026-05-07 13:17 | 45.62936 | 8.71396 | 775 ft | 0 kts | 121° |
| 2026-05-07 13:21 | 45.62936 | 8.71397 | 775 ft | 0 kts | 121° |
| 2026-05-07 13:21 | 45.62932 | 8.71408 | 775 ft | 6 kts | 112° |
| 2026-05-07 13:21 | 45.62932 | 8.71499 | 775 ft | 13 kts | 80° |
| 2026-05-07 13:22 | 45.62950 | 8.71637 | 775 ft | 11 kts | 78° |
| 2026-05-07 13:22 | 45.62958 | 8.71689 | 775 ft | 3 kts | 79° |
| 2026-05-07 13:22 | 45.62962 | 8.71719 | 775 ft | 4 kts | 80° |
| 2026-05-07 13:22 | 45.62975 | 8.71816 | 775 ft | 16 kts | 78° |
| 2026-05-07 13:23 | 45.62957 | 8.71927 | 775 ft | 7 kts | 155° |
| 2026-05-07 13:23 | 45.62933 | 8.71941 | 775 ft | 1 kts | 161° |
| 2026-05-07 13:23 | 45.62901 | 8.71951 | 775 ft | 13 kts | 169° |
| 2026-05-07 13:23 | 45.62764 | 8.71989 | 775 ft | 21 kts | 169° |
| 2026-05-07 13:24 | 45.62631 | 8.72027 | 775 ft | 16 kts | 167° |
| 2026-05-07 13:24 | 45.62546 | 8.72052 | 775 ft | 10 kts | 168° |
| 2026-05-07 13:24 | 45.62502 | 8.72065 | 775 ft | 4 kts | 169° |
| 2026-05-07 13:24 | 45.62443 | 8.72081 | 775 ft | 16 kts | 169° |
| 2026-05-07 13:25 | 45.62322 | 8.72115 | 775 ft | 16 kts | 169° |
| 2026-05-07 13:25 | 45.62230 | 8.72139 | 775 ft | 11 kts | 170° |
| 2026-05-07 13:25 | 45.62172 | 8.72154 | 775 ft | 5 kts | 170° |
| 2026-05-07 13:25 | 45.62138 | 8.72163 | 775 ft | 9 kts | 170° |
| 2026-05-07 13:26 | 45.62007 | 8.72197 | 775 ft | 28 kts | 168° |
| 2026-05-07 13:26 | 45.61816 | 8.72253 | 775 ft | 26 kts | 169° |
| 2026-05-07 13:26 | 45.61655 | 8.72295 | 775 ft | 21 kts | 169° |
| 2026-05-07 13:26 | 45.61499 | 8.72338 | 775 ft | 27 kts | 168° |
| 2026-05-07 13:27 | 45.61316 | 8.72391 | 775 ft | 24 kts | 168° |
| 2026-05-07 13:27 | 45.61159 | 8.72438 | 775 ft | 13 kts | 157° |
| 2026-05-07 13:27 | 45.61099 | 8.72540 | 775 ft | 17 kts | 120° |
| 2026-05-07 13:27 | 45.61081 | 8.72674 | 775 ft | 10 kts | 79° |
| 2026-05-07 13:28 | 45.61090 | 8.72731 | 775 ft | 3 kts | 79° |
| 2026-05-07 13:28 | 45.61107 | 8.72865 | 775 ft | 26 kts | 79° |
| 2026-05-07 13:28 | 45.61181 | 8.73085 | 775 ft | 23 kts | 33° |
| 2026-05-07 13:28 | 45.61323 | 8.73222 | 775 ft | 24 kts | 32° |
| 2026-05-07 13:29 | 45.61455 | 8.73248 | 775 ft | 18 kts | 348° |
| 2026-05-07 13:29 | 45.61567 | 8.73216 | 775 ft | 12 kts | 351° |
| 2026-05-07 13:29 | 45.61621 | 8.73280 | 775 ft | 14 kts | 75° |
| 2026-05-07 13:29 | 45.61624 | 8.73448 | 775 ft | 21 kts | 119° |
| 2026-05-07 13:30 | 45.61592 | 8.73632 | 775 ft | 17 kts | 84° |
| 2026-05-07 13:30 | 45.61657 | 8.73720 | 775 ft | 17 kts | 354° |
| 2026-05-07 13:30 | 45.61887 | 8.73658 | 775 ft | 61 kts | 349° |
| 2026-05-07 13:30 | 45.62511 | 8.73484 | 775 ft | 120 kts | 349° |
| 2026-05-07 13:31 | 45.63500 | 8.73207 | 884 ft | 159 kts | 349° |
| 2026-05-07 13:31 | 45.64587 | 8.72933 | 1577 ft | 158 kts | 351° |
| 2026-05-07 13:31 | 45.65692 | 8.72917 | 2267 ft | 164 kts | 9° |
| 2026-05-07 13:31 | 45.66789 | 8.73661 | 2604 ft | 188 kts | 37° |
| 2026-05-07 13:32 | 45.67689 | 8.75086 | 3161 ft | 201 kts | 56° |
| 2026-05-07 13:32 | 45.68394 | 8.76954 | 3453 ft | 225 kts | 65° |
| 2026-05-07 13:32 | 45.69098 | 8.78987 | 4145 ft | 234 kts | 57° |
| 2026-05-07 13:32 | 45.70087 | 8.80864 | 4946 ft | 239 kts | 59° |
| 2026-05-07 13:33 | 45.70745 | 8.83107 | 5505 ft | 255 kts | 77° |
| 2026-05-07 13:33 | 45.70978 | 8.85708 | 6067 ft | 270 kts | 85° |
| 2026-05-07 13:33 | 45.71165 | 8.88415 | 6827 ft | 276 kts | 85° |
| 2026-05-07 13:33 | 45.71346 | 8.91180 | 7633 ft | 281 kts | 85° |
| 2026-05-07 13:34 | 45.71529 | 8.93993 | 8438 ft | 286 kts | 85° |
| 2026-05-07 13:34 | 45.71899 | 8.99733 | 10059 ft | 293 kts | 85° |
| 2026-05-07 13:34 | 45.72084 | 9.02641 | 10772 ft | 300 kts | 85° |
| 2026-05-07 13:35 | 45.72281 | 9.05738 | 11182 ft | 319 kts | 85° |
| 2026-05-07 13:35 | 45.72484 | 9.08961 | 11481 ft | 340 kts | 85° |
| 2026-05-07 13:35 | 45.72701 | 9.12415 | 11892 ft | 355 kts | 85° |
| 2026-05-07 13:35 | 45.72922 | 9.15988 | 12517 ft | 363 kts | 85° |
| 2026-05-07 13:36 | 45.73146 | 9.19602 | 13239 ft | 368 kts | 85° |
| 2026-05-07 13:36 | 45.73374 | 9.23276 | 13982 ft | 373 kts | 85° |
| 2026-05-07 13:36 | 45.73601 | 9.26990 | 14716 ft | 378 kts | 85° |
| 2026-05-07 13:36 | 45.73833 | 9.30773 | 15455 ft | 382 kts | 84° |
| 2026-05-07 13:37 | 45.74067 | 9.34590 | 16166 ft | 387 kts | 84° |
| 2026-05-07 13:37 | 45.74326 | 9.38443 | 16855 ft | 392 kts | 84° |
| 2026-05-07 13:37 | 45.74584 | 9.42356 | 17526 ft | 396 kts | 84° |
| 2026-05-07 13:37 | 45.74835 | 9.46266 | 18172 ft | 401 kts | 84° |
| 2026-05-07 13:38 | 45.75089 | 9.50272 | 18828 ft | 405 kts | 84° |
| 2026-05-07 13:38 | 45.75339 | 9.54307 | 19480 ft | 408 kts | 84° |
| 2026-05-07 13:38 | 45.75590 | 9.58380 | 20114 ft | 412 kts | 84° |
| 2026-05-07 13:38 | 45.75842 | 9.62501 | 20729 ft | 416 kts | 84° |
| 2026-05-07 13:39 | 45.76091 | 9.66602 | 21315 ft | 419 kts | 84° |
| 2026-05-07 13:39 | 45.76345 | 9.70842 | 21901 ft | 423 kts | 84° |
| 2026-05-07 13:39 | 45.76595 | 9.75052 | 22459 ft | 426 kts | 85° |
| 2026-05-07 13:39 | 45.76843 | 9.79250 | 22997 ft | 430 kts | 85° |
| 2026-05-07 13:40 | 45.77093 | 9.83529 | 23527 ft | 433 kts | 85° |
| 2026-05-07 13:40 | 45.77345 | 9.87850 | 24036 ft | 436 kts | 85° |
| 2026-05-07 13:40 | 45.77594 | 9.92177 | 24510 ft | 440 kts | 85° |
| 2026-05-07 13:40 | 45.77847 | 9.96572 | 24956 ft | 444 kts | 85° |
| 2026-05-07 13:41 | 45.78121 | 10.01004 | 25376 ft | 448 kts | 85° |
| 2026-05-07 13:41 | 45.78384 | 10.05477 | 25768 ft | 453 kts | 85° |
| 2026-05-07 13:41 | 45.78641 | 10.09997 | 26146 ft | 457 kts | 85° |
| 2026-05-07 13:41 | 45.78893 | 10.14560 | 26541 ft | 461 kts | 85° |
| 2026-05-07 13:42 | 45.79144 | 10.19174 | 26919 ft | 465 kts | 85° |
| 2026-05-07 13:42 | 45.79388 | 10.23744 | 27277 ft | 469 kts | 85° |
| 2026-05-07 13:42 | 45.79637 | 10.28426 | 27622 ft | 473 kts | 86° |
| 2026-05-07 13:42 | 45.79885 | 10.33127 | 27944 ft | 477 kts | 86° |
| 2026-05-07 13:43 | 45.80222 | 10.37890 | 28285 ft | 480 kts | 81° |
| 2026-05-07 13:43 | 45.80902 | 10.42604 | 28619 ft | 483 kts | 75° |
| 2026-05-07 13:43 | 45.81932 | 10.47184 | 29050 ft | 483 kts | 68° |
| 2026-05-07 13:43 | 45.83228 | 10.51633 | 29474 ft | 483 kts | 65° |
| 2026-05-07 13:44 | 45.84642 | 10.56008 | 29829 ft | 485 kts | 63° |
| 2026-05-07 13:44 | 45.86082 | 10.60393 | 30230 ft | 486 kts | 63° |
| 2026-05-07 13:44 | 45.87521 | 10.64789 | 30597 ft | 487 kts | 64° |
| 2026-05-07 13:44 | 45.88953 | 10.69191 | 30981 ft | 488 kts | 64° |
| 2026-05-07 13:45 | 45.90385 | 10.73614 | 31351 ft | 489 kts | 64° |
| 2026-05-07 13:45 | 45.91815 | 10.78047 | 31718 ft | 490 kts | 64° |
| 2026-05-07 13:45 | 45.93252 | 10.82514 | 31962 ft | 493 kts | 65° |
| 2026-05-07 13:46 | 45.96148 | 10.91474 | 32005 ft | 495 kts | 64° |
| 2026-05-07 13:46 | 45.99049 | 11.00407 | 32014 ft | 492 kts | 65° |
| 2026-05-07 13:47 | 46.01912 | 11.09302 | 32014 ft | 491 kts | 65° |
| 2026-05-07 13:47 | 46.04756 | 11.18192 | 32012 ft | 487 kts | 65° |
| 2026-05-07 13:48 | 46.07579 | 11.27067 | 32007 ft | 488 kts | 66° |
| 2026-05-07 13:48 | 46.10403 | 11.35979 | 32009 ft | 489 kts | 66° |
| 2026-05-07 13:49 | 46.13224 | 11.44918 | 32017 ft | 491 kts | 66° |
| 2026-05-07 13:49 | 46.16047 | 11.53896 | 32026 ft | 492 kts | 66° |
| 2026-05-07 13:50 | 46.18858 | 11.62866 | 32041 ft | 493 kts | 66° |
| 2026-05-07 13:50 | 46.21678 | 11.71903 | 32058 ft | 493 kts | 66° |
| 2026-05-07 13:51 | 46.24490 | 11.80944 | 32073 ft | 494 kts | 67° |
| 2026-05-07 13:51 | 46.27341 | 11.89994 | 32065 ft | 495 kts | 61° |
| 2026-05-07 13:51 | 46.29442 | 11.93897 | 32058 ft | 493 kts | 41° |
| 2026-05-07 13:52 | 46.32177 | 11.96827 | 32083 ft | 490 kts | 31° |
| 2026-05-07 13:52 | 46.38022 | 12.01866 | 32068 ft | 488 kts | 27° |
| 2026-05-07 13:53 | 46.43886 | 12.06871 | 32053 ft | 489 kts | 27° |
| 2026-05-07 13:53 | 46.49729 | 12.11856 | 32050 ft | 489 kts | 27° |
| 2026-05-07 13:54 | 46.55640 | 12.16897 | 32048 ft | 489 kts | 27° |
| 2026-05-07 13:54 | 46.61644 | 12.21478 | 32050 ft | 489 kts | 21° |
| 2026-05-07 13:54 | 46.64656 | 12.23767 | 32027 ft | 493 kts | 33° |
| 2026-05-07 13:55 | 46.67155 | 12.27220 | 32038 ft | 497 kts | 51° |
| 2026-05-07 13:55 | 46.68958 | 12.31517 | 32057 ft | 497 kts | 64° |
| 2026-05-07 13:55 | 46.70427 | 12.36055 | 32057 ft | 493 kts | 67° |
| 2026-05-07 13:56 | 46.72981 | 12.45345 | 32052 ft | 495 kts | 69° |
| 2026-05-07 13:56 | 46.75243 | 12.53073 | 32050 ft | 503 kts | 68° |
| 2026-05-07 13:57 | 46.78036 | 12.62486 | 32044 ft | 501 kts | 69° |
| 2026-05-07 13:57 | 46.80739 | 12.71759 | 32029 ft | 493 kts | 69° |
| 2026-05-07 13:58 | 46.83407 | 12.80971 | 32028 ft | 499 kts | 69° |
| 2026-05-07 13:58 | 46.86130 | 12.90401 | 32032 ft | 505 kts | 70° |
| 2026-05-07 13:59 | 46.88873 | 12.99749 | 32021 ft | 495 kts | 69° |
| 2026-05-07 13:59 | 46.91564 | 13.08934 | 32022 ft | 490 kts | 69° |
| 2026-05-07 14:00 | 46.94230 | 13.18125 | 32019 ft | 491 kts | 70° |
| 2026-05-07 14:00 | 46.96882 | 13.27330 | 31988 ft | 490 kts | 70° |
| 2026-05-07 14:01 | 46.99509 | 13.36496 | 31966 ft | 491 kts | 70° |
| 2026-05-07 14:01 | 47.02142 | 13.45726 | 31956 ft | 491 kts | 70° |
| 2026-05-07 14:02 | 47.04776 | 13.55002 | 31950 ft | 491 kts | 70° |
| 2026-05-07 14:02 | 47.07379 | 13.64204 | 31946 ft | 492 kts | 71° |
| 2026-05-07 14:03 | 47.09996 | 13.73491 | 31944 ft | 491 kts | 71° |
| 2026-05-07 14:03 | 47.12600 | 13.82772 | 31942 ft | 491 kts | 71° |
| 2026-05-07 14:04 | 47.15187 | 13.92027 | 31940 ft | 492 kts | 71° |
| 2026-05-07 14:04 | 47.17773 | 14.01314 | 31852 ft | 490 kts | 71° |
| 2026-05-07 14:04 | 47.19062 | 14.05954 | 31327 ft | 485 kts | 71° |
| 2026-05-07 14:05 | 47.20332 | 14.10535 | 30792 ft | 482 kts | 72° |
| 2026-05-07 14:05 | 47.21591 | 14.15086 | 30268 ft | 479 kts | 72° |
| 2026-05-07 14:05 | 47.22840 | 14.19606 | 29752 ft | 476 kts | 73° |
| 2026-05-07 14:05 | 47.24079 | 14.24108 | 29239 ft | 473 kts | 73° |
| 2026-05-07 14:06 | 47.25295 | 14.28531 | 28736 ft | 470 kts | 73° |
| 2026-05-07 14:06 | 47.26517 | 14.32984 | 28229 ft | 467 kts | 72° |
| 2026-05-07 14:06 | 47.27736 | 14.37433 | 27720 ft | 464 kts | 72° |
| 2026-05-07 14:06 | 47.28940 | 14.41836 | 27216 ft | 461 kts | 72° |
| 2026-05-07 14:07 | 47.30117 | 14.46151 | 26722 ft | 457 kts | 72° |
| 2026-05-07 14:07 | 47.31297 | 14.50481 | 26224 ft | 454 kts | 72° |
| 2026-05-07 14:07 | 47.32465 | 14.54777 | 25730 ft | 451 kts | 72° |
| 2026-05-07 14:07 | 47.33628 | 14.59058 | 25237 ft | 447 kts | 72° |
| 2026-05-07 14:08 | 47.34775 | 14.63293 | 24748 ft | 444 kts | 72° |
| 2026-05-07 14:08 | 47.35916 | 14.67515 | 24258 ft | 440 kts | 72° |
| 2026-05-07 14:08 | 47.37042 | 14.71681 | 23774 ft | 437 kts | 72° |
| 2026-05-07 14:08 | 47.38161 | 14.75833 | 23291 ft | 433 kts | 71° |
| 2026-05-07 14:09 | 47.39268 | 14.79946 | 22809 ft | 430 kts | 71° |
| 2026-05-07 14:09 | 47.40365 | 14.84028 | 22330 ft | 427 kts | 71° |
| 2026-05-07 14:09 | 47.41457 | 14.88101 | 21851 ft | 423 kts | 71° |
| 2026-05-07 14:09 | 47.42539 | 14.92140 | 21374 ft | 420 kts | 71° |
| 2026-05-07 14:10 | 47.43605 | 14.96129 | 20903 ft | 417 kts | 71° |
| 2026-05-07 14:10 | 47.44663 | 15.00100 | 20432 ft | 414 kts | 71° |
| 2026-05-07 14:10 | 47.45712 | 15.04035 | 19966 ft | 410 kts | 71° |
| 2026-05-07 14:10 | 47.46755 | 15.07964 | 19500 ft | 407 kts | 71° |
| 2026-05-07 14:11 | 47.47788 | 15.11854 | 19039 ft | 404 kts | 71° |
| 2026-05-07 14:11 | 47.48809 | 15.15706 | 18583 ft | 401 kts | 71° |
| 2026-05-07 14:11 | 47.49810 | 15.19486 | 18135 ft | 398 kts | 71° |
| 2026-05-07 14:11 | 47.50813 | 15.23282 | 17734 ft | 394 kts | 71° |
| 2026-05-07 14:12 | 47.51795 | 15.27016 | 17483 ft | 386 kts | 71° |
| 2026-05-07 14:12 | 47.52762 | 15.30699 | 17230 ft | 381 kts | 71° |
| 2026-05-07 14:12 | 47.53711 | 15.34329 | 16980 ft | 376 kts | 71° |
| 2026-05-07 14:12 | 47.54648 | 15.37919 | 16728 ft | 373 kts | 71° |
| 2026-05-07 14:13 | 47.55582 | 15.41505 | 16479 ft | 374 kts | 71° |
| 2026-05-07 14:13 | 47.56523 | 15.45124 | 16228 ft | 375 kts | 71° |
| 2026-05-07 14:13 | 47.57505 | 15.48690 | 15974 ft | 374 kts | 67° |
| 2026-05-07 14:13 | 47.58841 | 15.51993 | 15727 ft | 374 kts | 59° |
| 2026-05-07 14:14 | 47.60230 | 15.55204 | 15478 ft | 372 kts | 59° |
| 2026-05-07 14:14 | 47.61623 | 15.58419 | 15229 ft | 371 kts | 59° |
| 2026-05-07 14:14 | 47.63015 | 15.61639 | 14977 ft | 369 kts | 59° |
| 2026-05-07 14:14 | 47.64417 | 15.64822 | 14720 ft | 369 kts | 56° |
| 2026-05-07 14:15 | 47.66036 | 15.67745 | 14408 ft | 367 kts | 50° |
| 2026-05-07 14:15 | 47.67697 | 15.70616 | 14135 ft | 363 kts | 50° |
| 2026-05-07 14:15 | 47.69331 | 15.73450 | 13755 ft | 361 kts | 50° |
| 2026-05-07 14:15 | 47.70962 | 15.76272 | 13354 ft | 359 kts | 50° |
| 2026-05-07 14:16 | 47.72578 | 15.79075 | 12990 ft | 356 kts | 50° |
| 2026-05-07 14:16 | 47.74186 | 15.81869 | 12624 ft | 354 kts | 50° |
| 2026-05-07 14:16 | 47.75784 | 15.84633 | 12273 ft | 350 kts | 50° |
| 2026-05-07 14:16 | 47.77360 | 15.87378 | 12025 ft | 345 kts | 50° |
| 2026-05-07 14:17 | 47.78895 | 15.90058 | 11964 ft | 342 kts | 50° |
| 2026-05-07 14:17 | 47.80443 | 15.92760 | 11959 ft | 345 kts | 50° |
| 2026-05-07 14:17 | 47.82002 | 15.95488 | 11963 ft | 349 kts | 50° |
| 2026-05-07 14:17 | 47.83578 | 15.98248 | 11834 ft | 351 kts | 50° |
| 2026-05-07 14:18 | 47.85168 | 16.01040 | 11215 ft | 356 kts | 50° |
| 2026-05-07 14:18 | 47.86782 | 16.03855 | 10832 ft | 356 kts | 50° |
| 2026-05-07 14:18 | 47.88377 | 16.06641 | 10477 ft | 351 kts | 49° |
| 2026-05-07 14:18 | 47.89963 | 16.09379 | 10069 ft | 348 kts | 49° |
| 2026-05-07 14:19 | 47.91538 | 16.12118 | 9670 ft | 345 kts | 49° |
| 2026-05-07 14:19 | 47.93141 | 16.14750 | 9289 ft | 341 kts | 41° |
| 2026-05-07 14:19 | 47.95058 | 16.16762 | 8928 ft | 335 kts | 28° |
| 2026-05-07 14:19 | 47.97187 | 16.18121 | 8590 ft | 329 kts | 19° |
| 2026-05-07 14:20 | 47.99254 | 16.19278 | 8450 ft | 311 kts | 19° |
| 2026-05-07 14:20 | 48.01226 | 16.20366 | 8328 ft | 295 kts | 19° |
| 2026-05-07 14:20 | 48.03119 | 16.21411 | 8040 ft | 286 kts | 19° |
| 2026-05-07 14:20 | 48.04973 | 16.22437 | 7611 ft | 283 kts | 19° |
| 2026-05-07 14:21 | 48.06810 | 16.23455 | 7270 ft | 280 kts | 18° |
| 2026-05-07 14:21 | 48.08613 | 16.24457 | 7184 ft | 270 kts | 18° |
| 2026-05-07 14:21 | 48.10341 | 16.25416 | 7112 ft | 260 kts | 18° |
| 2026-05-07 14:21 | 48.11997 | 16.26336 | 7034 ft | 250 kts | 18° |
| 2026-05-07 14:22 | 48.13576 | 16.27212 | 6957 ft | 240 kts | 18° |
| 2026-05-07 14:22 | 48.15127 | 16.28064 | 6780 ft | 235 kts | 18° |
| 2026-05-07 14:22 | 48.16655 | 16.28906 | 6527 ft | 234 kts | 18° |
| 2026-05-07 14:22 | 48.18196 | 16.29757 | 6216 ft | 235 kts | 18° |
| 2026-05-07 14:23 | 48.19734 | 16.30610 | 5934 ft | 235 kts | 18° |
| 2026-05-07 14:23 | 48.21262 | 16.31460 | 5662 ft | 234 kts | 18° |
| 2026-05-07 14:23 | 48.22776 | 16.32303 | 5384 ft | 234 kts | 18° |
| 2026-05-07 14:23 | 48.24298 | 16.33152 | 5118 ft | 233 kts | 18° |
| 2026-05-07 14:24 | 48.25811 | 16.33997 | 5007 ft | 232 kts | 18° |
| 2026-05-07 14:24 | 48.27324 | 16.34844 | 4999 ft | 232 kts | 18° |
| 2026-05-07 14:24 | 48.28835 | 16.35690 | 4999 ft | 231 kts | 18° |
| 2026-05-07 14:24 | 48.30352 | 16.36541 | 5000 ft | 232 kts | 18° |
| 2026-05-07 14:25 | 48.31831 | 16.37524 | 4981 ft | 235 kts | 32° |
| 2026-05-07 14:25 | 48.33020 | 16.39214 | 4999 ft | 235 kts | 46° |
| 2026-05-07 14:25 | 48.34066 | 16.41076 | 4998 ft | 232 kts | 49° |
| 2026-05-07 14:25 | 48.35095 | 16.42938 | 4996 ft | 229 kts | 49° |
| 2026-05-07 14:26 | 48.36083 | 16.44811 | 4977 ft | 228 kts | 60° |
| 2026-05-07 14:26 | 48.36369 | 16.47112 | 4936 ft | 228 kts | 99° |
| 2026-05-07 14:26 | 48.35657 | 16.49130 | 4948 ft | 223 kts | 138° |
| 2026-05-07 14:26 | 48.34275 | 16.50046 | 4949 ft | 220 kts | 174° |
| 2026-05-07 14:27 | 48.32724 | 16.50122 | 4764 ft | 229 kts | 179° |
| 2026-05-07 14:27 | 48.31127 | 16.50330 | 4434 ft | 229 kts | 174° |
| 2026-05-07 14:27 | 48.29567 | 16.50723 | 4126 ft | 225 kts | 172° |
| 2026-05-07 14:27 | 48.28033 | 16.51144 | 3828 ft | 221 kts | 170° |
| 2026-05-07 14:28 | 48.26561 | 16.51656 | 3557 ft | 215 kts | 167° |
| 2026-05-07 14:28 | 48.25124 | 16.52242 | 3262 ft | 210 kts | 166° |
| 2026-05-07 14:28 | 48.23738 | 16.52825 | 2978 ft | 204 kts | 166° |
| 2026-05-07 14:28 | 48.22391 | 16.53396 | 2710 ft | 198 kts | 166° |
| 2026-05-07 14:29 | 48.21092 | 16.53948 | 2451 ft | 191 kts | 166° |
| 2026-05-07 14:29 | 48.19839 | 16.54480 | 2220 ft | 181 kts | 166° |
| 2026-05-07 14:29 | 48.18679 | 16.54974 | 2002 ft | 169 kts | 166° |
| 2026-05-07 14:29 | 48.17588 | 16.55437 | 1764 ft | 158 kts | 166° |
| 2026-05-07 14:30 | 48.16546 | 16.55880 | 1544 ft | 150 kts | 166° |
| 2026-05-07 14:30 | 48.15566 | 16.56296 | 1355 ft | 147 kts | 166° |
| 2026-05-07 14:30 | 48.14591 | 16.56710 | 1162 ft | 145 kts | 166° |
| 2026-05-07 14:30 | 48.13628 | 16.57122 | 977 ft | 143 kts | 165° |
| 2026-05-07 14:31 | 48.12680 | 16.57525 | 792 ft | 142 kts | 166° |
| 2026-05-07 14:31 | 48.11727 | 16.57927 | 612 ft | 140 kts | 165° |
| 2026-05-07 14:31 | 48.10955 | 16.58254 | 608 ft | 75 kts | 165° |
| 2026-05-07 14:31 | 48.10606 | 16.58400 | 608 ft | 36 kts | 164° |
| 2026-05-07 14:32 | 48.10407 | 16.58474 | 608 ft | 23 kts | 176° |
| 2026-05-07 14:32 | 48.10266 | 16.58454 | 608 ft | 17 kts | 194° |
| 2026-05-07 14:32 | 48.10166 | 16.58416 | 608 ft | 12 kts | 197° |
| 2026-05-07 14:32 | 48.10105 | 16.58328 | 608 ft | 15 kts | 254° |
| 2026-05-07 14:33 | 48.10119 | 16.58190 | 608 ft | 12 kts | 335° |
| 2026-05-07 14:33 | 48.10178 | 16.58158 | 608 ft | 6 kts | 341° |
| 2026-05-07 14:33 | 48.10210 | 16.58146 | 608 ft | 7 kts | 348° |
| 2026-05-07 14:33 | 48.10294 | 16.58115 | 608 ft | 18 kts | 344° |
| 2026-05-07 14:34 | 48.10430 | 16.58056 | 608 ft | 21 kts | 343° |
| 2026-05-07 14:34 | 48.10582 | 16.57991 | 608 ft | 24 kts | 343° |
| 2026-05-07 14:34 | 48.10733 | 16.57925 | 608 ft | 34 kts | 345° |
| 2026-05-07 14:34 | 48.11275 | 16.57696 | 608 ft | 127 kts | 345° |
| 2026-05-07 14:35 | 48.12381 | 16.57240 | 974 ft | 187 kts | 345° |